createdAt,value
2023-04-01T00:00:03.822Z,9.52
2023-04-01T00:01:04.710Z,9.49
2023-04-01T00:02:05.204Z,9.56
2023-04-01T00:03:06.234Z,9.54
2023-04-01T00:04:06.583Z,9.54
2023-04-01T00:05:07.526Z,9.54
2023-04-01T00:06:08.223Z,9.55
2023-04-01T00:07:08.915Z,9.56
2023-04-01T00:08:11.895Z,9.54
2023-04-01T00:10:11.180Z,9.63
2023-04-01T00:11:12.132Z,9.64
2023-04-01T00:12:12.982Z,9.63
2023-04-01T00:13:13.429Z,9.63
2023-04-01T00:14:14.127Z,9.66
2023-04-01T00:15:14.639Z,9.74
2023-04-01T00:16:27.513Z,9.76
2023-04-01T00:18:17.175Z,9.84
2023-04-01T00:19:17.619Z,9.9
2023-04-01T00:20:18.345Z,9.84
2023-04-01T00:21:19.098Z,9.87
2023-04-01T00:22:19.620Z,9.85
2023-04-01T00:23:19.954Z,9.91
2023-04-01T00:24:20.722Z,9.88
2023-04-01T00:25:21.408Z,9.87
2023-04-01T00:26:21.576Z,9.84
2023-04-01T00:27:22.288Z,9.88
2023-04-01T00:28:22.587Z,9.84
2023-04-01T00:29:23.308Z,9.85
2023-04-01T00:30:23.504Z,9.95
2023-04-01T00:31:24.117Z,9.95
2023-04-01T00:32:24.579Z,9.92
2023-04-01T00:33:25.155Z,9.88
2023-04-01T00:34:25.663Z,9.84
2023-04-01T00:35:26.550Z,9.85
2023-04-01T00:36:27.046Z,9.9
2023-04-01T00:37:27.821Z,9.8
2023-04-01T00:38:28.599Z,9.84
2023-04-01T00:39:29.451Z,9.84
2023-04-01T00:40:29.945Z,9.88
2023-04-01T00:41:30.232Z,9.87
2023-04-01T00:42:30.935Z,9.82
2023-04-01T00:43:31.723Z,9.74
2023-04-01T00:44:32.460Z,9.8
2023-04-01T00:45:33.439Z,9.7
2023-04-01T00:46:33.647Z,9.74
2023-04-01T00:47:34.428Z,9.72
2023-04-01T00:48:34.860Z,9.73
2023-04-01T00:49:35.307Z,9.74
2023-04-01T00:50:35.803Z,9.74
2023-04-01T00:51:36.098Z,9.84
2023-04-01T00:52:37.002Z,9.72
2023-04-01T00:53:37.506Z,9.74
2023-04-01T00:54:38.467Z,9.85
2023-04-01T00:55:39.055Z,9.81
2023-04-01T00:56:38.987Z,9.82
2023-04-01T00:57:39.833Z,9.81
2023-04-01T00:58:40.756Z,9.9
2023-04-01T00:59:41.114Z,9.87
2023-04-01T01:00:42.306Z,9.81
2023-04-01T01:01:42.143Z,9.91
2023-04-01T01:02:43.776Z,9.85
2023-04-01T01:03:43.699Z,9.76
2023-04-01T01:04:43.807Z,9.72
2023-04-01T01:05:54.516Z,9.72
2023-04-01T01:07:45.470Z,9.76
2023-04-01T01:08:46.200Z,9.76
2023-04-01T01:09:46.672Z,9.74
2023-04-01T01:10:47.373Z,9.69
2023-04-01T01:11:49.603Z,9.87
2023-04-01T01:13:48.815Z,9.84
2023-04-01T01:14:49.296Z,9.87
2023-04-01T01:15:50.179Z,9.84
2023-04-01T01:16:50.674Z,9.82
2023-04-01T01:17:51.725Z,9.84
2023-04-01T01:18:52.892Z,9.76
2023-04-01T01:19:53.117Z,9.85
2023-04-01T01:20:54.124Z,9.74
2023-04-01T01:21:54.044Z,9.82
2023-04-01T01:22:54.749Z,9.84
2023-04-01T01:23:55.900Z,9.85
2023-04-01T01:24:55.848Z,9.85
2023-04-01T01:25:56.975Z,9.85
2023-04-01T01:26:57.688Z,9.87
2023-04-01T01:27:58.599Z,9.85
2023-04-01T01:28:59.280Z,9.91
2023-04-01T01:29:59.901Z,9.84
2023-04-01T01:31:00.404Z,9.84
2023-04-01T01:32:00.967Z,9.88
2023-04-01T01:33:01.953Z,9.85
2023-04-01T01:34:02.302Z,9.87
2023-04-01T01:35:03.050Z,9.77
2023-04-01T01:36:03.258Z,9.81
2023-04-01T01:37:03.092Z,9.87
2023-04-01T01:38:03.629Z,9.81
2023-04-01T01:39:04.387Z,9.73
2023-04-01T01:40:04.903Z,9.72
2023-04-01T01:41:05.419Z,9.74
2023-04-01T01:42:06.343Z,9.74
2023-04-01T01:43:06.876Z,9.74
2023-04-01T01:44:07.847Z,9.7
2023-04-01T01:45:08.660Z,9.8
2023-04-01T01:46:09.496Z,9.76
2023-04-01T01:47:09.953Z,9.7
2023-04-01T01:48:11.272Z,9.63
2023-04-01T01:49:11.246Z,9.66
2023-04-01T01:50:11.910Z,9.67
2023-04-01T01:51:13.036Z,9.66
2023-04-01T01:52:13.973Z,9.63
2023-04-01T01:53:14.724Z,9.62
2023-04-01T01:54:15.447Z,9.58
2023-04-01T01:55:15.633Z,9.59
2023-04-01T01:56:15.776Z,9.66
2023-04-01T01:57:16.244Z,9.52
2023-04-01T01:58:16.884Z,9.55
2023-04-01T01:59:17.796Z,9.52
2023-04-01T02:00:18.611Z,9.55
2023-04-01T02:01:18.842Z,9.56
2023-04-01T02:02:18.677Z,9.56
2023-04-01T02:03:19.431Z,9.56
2023-04-01T02:04:20.328Z,9.52
2023-04-01T02:05:21.191Z,9.54
2023-04-01T02:06:21.532Z,9.52
2023-04-01T02:07:22.259Z,9.51
2023-04-01T02:08:22.766Z,9.51
2023-04-01T02:09:23.504Z,9.51
2023-04-01T02:10:24.373Z,9.47
2023-04-01T02:11:24.870Z,9.52
2023-04-01T02:12:25.554Z,9.54
2023-04-01T02:13:26.050Z,9.44
2023-04-01T02:14:26.948Z,9.52
2023-04-01T02:15:27.689Z,9.48
2023-04-01T02:16:29.098Z,9.48
2023-04-01T02:17:28.675Z,9.37
2023-04-01T02:18:29.685Z,9.39
2023-04-01T02:19:30.184Z,9.36
2023-04-01T02:20:31.212Z,9.39
2023-04-01T02:21:32.154Z,9.31
2023-04-01T02:22:32.700Z,9.3
2023-04-01T02:23:32.993Z,9.3
2023-04-01T02:24:33.736Z,9.29
2023-04-01T02:25:35.351Z,9.3
2023-04-01T02:26:34.833Z,9.3
2023-04-01T02:27:35.193Z,9.27
2023-04-01T02:28:36.101Z,9.19
2023-04-01T02:29:37.011Z,9.21
2023-04-01T02:30:37.630Z,9.19
2023-04-01T02:31:38.699Z,9.11
2023-04-01T02:32:39.615Z,8.99
2023-04-01T02:33:40.371Z,9.05
2023-04-01T02:34:41.277Z,8.96
2023-04-01T02:35:41.269Z,8.99
2023-04-01T02:36:42.319Z,8.93
2023-04-01T02:37:45.853Z,8.82
2023-04-01T02:39:44.074Z,8.71
2023-04-01T02:40:44.891Z,8.72
2023-04-01T02:41:45.371Z,8.61
2023-04-01T02:42:46.063Z,8.63
2023-04-01T02:43:46.967Z,8.61
2023-04-01T02:44:48.037Z,8.57
2023-04-01T02:45:48.760Z,8.54
2023-04-01T02:46:49.649Z,8.59
2023-04-01T02:47:49.921Z,8.57
2023-04-01T02:48:50.738Z,8.46
2023-04-01T02:49:51.482Z,8.5
2023-04-01T02:50:51.764Z,8.49
2023-04-01T02:51:52.464Z,8.39
2023-04-01T02:52:52.976Z,8.44
2023-04-01T02:53:53.547Z,8.36
2023-04-01T02:54:54.254Z,8.44
2023-04-01T02:55:54.789Z,8.35
2023-04-01T02:56:55.848Z,8.44
2023-04-01T02:57:55.488Z,8.44
2023-04-01T02:58:56.406Z,8.39
2023-04-01T02:59:56.739Z,8.39
2023-04-01T03:00:57.353Z,8.38
2023-04-01T03:01:57.871Z,8.39
2023-04-01T03:02:58.929Z,8.35
2023-04-01T03:03:58.675Z,8.28
2023-04-01T03:04:59.594Z,8.27
2023-04-01T03:06:00.527Z,8.28
2023-04-01T03:07:01.234Z,8.28
2023-04-01T03:08:01.924Z,8.35
2023-04-01T03:09:02.641Z,8.28
2023-04-01T03:10:03.487Z,8.28
2023-04-01T03:11:06.266Z,8.34
2023-04-01T03:13:05.711Z,8.28
2023-04-01T03:14:06.797Z,8.32
2023-04-01T03:15:17.110Z,8.28
2023-04-01T03:17:08.470Z,8.24
2023-04-01T03:18:08.331Z,8.27
2023-04-01T03:19:08.896Z,8.14
2023-04-01T03:20:10.033Z,8.26
2023-04-01T03:21:10.443Z,8.17
2023-04-01T03:22:11.121Z,8.21
2023-04-01T03:23:12.026Z,8.17
2023-04-01T03:24:12.537Z,8.21
2023-04-01T03:25:13.106Z,8.21
2023-04-01T03:26:14.030Z,8.21
2023-04-01T03:27:14.764Z,8.14
2023-04-01T03:28:15.552Z,8.18
2023-04-01T03:29:15.672Z,8.2
2023-04-01T03:30:16.465Z,8.23
2023-04-01T03:31:17.639Z,8.23
2023-04-01T03:32:17.385Z,8.21
2023-04-01T03:33:18.180Z,8.18
2023-04-01T03:34:19.282Z,8.2
2023-04-01T03:35:19.796Z,8.26
2023-04-01T03:36:20.242Z,8.24
2023-04-01T03:37:20.112Z,8.26
2023-04-01T03:38:21.004Z,8.21
2023-04-01T03:39:21.296Z,8.18
2023-04-01T03:40:21.820Z,8.18
2023-04-01T03:41:22.086Z,8.18
2023-04-01T03:42:22.762Z,8.09
2023-04-01T03:43:23.987Z,8.13
2023-04-01T03:44:24.509Z,8.14
2023-04-01T03:45:25.307Z,8.18
2023-04-01T03:46:25.624Z,8.23
2023-04-01T03:47:25.595Z,8.17
2023-04-01T03:48:26.764Z,8.03
2023-04-01T03:49:27.499Z,8.08
2023-04-01T03:50:28.774Z,8.09
2023-04-01T03:51:28.164Z,8.13
2023-04-01T03:52:28.649Z,8.14
2023-04-01T03:53:29.354Z,8.08
2023-04-01T03:54:29.831Z,8.09
2023-04-01T03:55:31.219Z,8.06
2023-04-01T03:56:30.906Z,8.05
2023-04-01T03:57:31.649Z,8.08
2023-04-01T03:58:32.280Z,8.06
2023-04-01T03:59:32.840Z,8.2
2023-04-01T04:00:33.344Z,8.16
2023-04-01T04:01:33.757Z,8.14
2023-04-01T04:02:34.951Z,8.16
2023-04-01T04:03:36.190Z,8.14
2023-04-01T04:04:36.566Z,8.24
2023-04-01T04:05:37.728Z,8.2
2023-04-01T04:06:37.843Z,8.28
2023-04-01T04:07:38.538Z,8.35
2023-04-01T04:08:39.037Z,8.31
2023-04-01T04:09:39.920Z,8.35
2023-04-01T04:10:40.061Z,8.31
2023-04-01T04:11:40.673Z,8.41
2023-04-01T04:12:41.190Z,8.38
2023-04-01T04:13:41.897Z,8.39
2023-04-01T04:14:43.022Z,8.39
2023-04-01T04:15:43.824Z,8.46
2023-04-01T04:16:44.395Z,8.38
2023-04-01T04:17:45.449Z,8.41
2023-04-01T04:18:45.988Z,8.39
2023-04-01T04:19:46.984Z,8.41
2023-04-01T04:20:47.747Z,8.42
2023-04-01T04:21:48.082Z,8.44
2023-04-01T04:22:48.883Z,8.46
2023-04-01T04:23:49.458Z,8.38
2023-04-01T04:24:49.942Z,8.5
2023-04-01T04:25:50.912Z,8.52
2023-04-01T04:26:51.868Z,8.52
2023-04-01T04:27:52.719Z,8.61
2023-04-01T04:28:53.674Z,8.57
2023-04-01T04:29:54.875Z,8.63
2023-04-01T04:30:55.592Z,8.71
2023-04-01T04:31:56.237Z,8.64
2023-04-01T04:32:57.089Z,8.71
2023-04-01T04:33:56.919Z,8.74
2023-04-01T04:34:57.311Z,8.72
2023-04-01T04:35:58.380Z,8.78
2023-04-01T04:36:58.156Z,8.82
2023-04-01T04:37:58.832Z,8.99
2023-04-01T04:38:58.771Z,8.97
2023-04-01T04:39:59.467Z,8.97
2023-04-01T04:41:00.640Z,9.03
2023-04-01T04:42:01.124Z,9.08
2023-04-01T04:43:01.808Z,9
2023-04-01T04:44:02.519Z,9.09
2023-04-01T04:45:03.232Z,9.03
2023-04-01T04:46:03.985Z,9
2023-04-01T04:47:05.024Z,8.96
2023-04-01T04:48:05.414Z,8.99
2023-04-01T04:49:06.152Z,8.95
2023-04-01T04:50:06.868Z,8.96
2023-04-01T04:51:07.994Z,8.99
2023-04-01T04:52:08.796Z,8.97
2023-04-01T04:53:09.493Z,9
2023-04-01T04:54:10.566Z,9.02
2023-04-01T04:55:10.865Z,9.02
2023-04-01T04:56:11.737Z,9.09
2023-04-01T04:57:11.800Z,9.09
2023-04-01T04:58:11.628Z,9.15
2023-04-01T04:59:12.563Z,9.09
2023-04-01T05:00:13.658Z,9.09
2023-04-01T05:01:14.792Z,9
2023-04-01T05:02:15.448Z,8.97
2023-04-01T05:03:15.834Z,8.99
2023-04-01T05:04:16.287Z,9.05
2023-04-01T05:05:17.235Z,8.96
2023-04-01T05:06:17.934Z,8.96
2023-04-01T05:07:18.568Z,8.92
2023-04-01T05:08:18.350Z,8.86
2023-04-01T05:09:18.870Z,8.9
2023-04-01T05:10:19.169Z,8.89
2023-04-01T05:11:20.676Z,8.77
2023-04-01T05:12:21.391Z,8.82
2023-04-01T05:13:22.345Z,8.87
2023-04-01T05:14:23.047Z,8.86
2023-04-01T05:15:23.929Z,8.89
2023-04-01T05:16:23.808Z,8.87
2023-04-01T05:17:24.937Z,8.82
2023-04-01T05:18:25.683Z,8.78
2023-04-01T05:19:26.580Z,8.75
2023-04-01T05:20:27.102Z,8.78
2023-04-01T05:21:28.043Z,8.78
2023-04-01T05:22:28.297Z,8.77
2023-04-01T05:23:29.295Z,8.79
2023-04-01T05:24:29.596Z,8.72
2023-04-01T05:25:30.580Z,8.78
2023-04-01T05:26:30.719Z,8.75
2023-04-01T05:27:30.649Z,8.77
2023-04-01T05:28:31.372Z,8.77
2023-04-01T05:29:32.275Z,8.77
2023-04-01T05:30:32.610Z,8.71
2023-04-01T05:31:33.593Z,8.77
2023-04-01T05:32:34.098Z,8.75
2023-04-01T05:33:34.601Z,8.79
2023-04-01T05:34:35.907Z,8.78
2023-04-01T05:35:37.350Z,8.81
2023-04-01T05:36:37.639Z,8.82
2023-04-01T05:37:38.248Z,8.89
2023-04-01T05:38:38.554Z,8.79
2023-04-01T05:39:39.264Z,8.82
2023-04-01T05:40:40.206Z,8.86
2023-04-01T05:41:41.184Z,8.82
2023-04-01T05:42:43.803Z,8.79
2023-04-01T05:44:42.957Z,8.93
2023-04-01T05:45:43.457Z,8.96
2023-04-01T05:46:44.405Z,8.99
2023-04-01T05:48:44.538Z,9
2023-04-01T05:49:45.493Z,9.08
2023-04-01T05:50:46.216Z,9.02
2023-04-01T05:51:46.717Z,9.12
2023-04-01T05:52:47.370Z,9.12
2023-04-01T05:53:48.137Z,9.12
2023-04-01T05:54:48.629Z,9.21
2023-04-01T05:55:49.121Z,9.27
2023-04-01T05:56:51.591Z,9.22
2023-04-01T05:58:51.487Z,9.31
2023-04-01T05:59:52.398Z,9.26
2023-04-01T06:01:10.058Z,9.33
2023-04-01T06:01:54.104Z,9.33
2023-04-01T06:02:54.901Z,9.34
2023-04-01T06:03:55.038Z,9.37
2023-04-01T06:04:55.401Z,9.36
2023-04-01T06:05:56.106Z,9.47
2023-04-01T06:06:56.840Z,9.48
2023-04-01T06:07:57.508Z,9.4
2023-04-01T06:08:58.222Z,9.56
2023-04-01T06:09:58.749Z,9.52
2023-04-01T06:10:59.476Z,9.49
2023-04-01T06:12:00.006Z,9.54
2023-04-01T06:12:59.837Z,9.62
2023-04-01T06:14:00.351Z,9.66
2023-04-01T06:15:00.828Z,9.7
2023-04-01T06:16:01.655Z,9.73
2023-04-01T06:17:02.225Z,9.81
2023-04-01T06:18:03.105Z,9.85
2023-04-01T06:19:03.161Z,9.81
2023-04-01T06:20:04.003Z,9.94
2023-04-01T06:21:04.508Z,9.99
2023-04-01T06:22:05.046Z,9.97
2023-04-01T06:23:05.327Z,10.06
2023-04-01T06:24:06.218Z,10.09
2023-04-01T06:25:07.009Z,10.07
2023-04-01T06:26:07.518Z,10.15
2023-04-01T06:27:08.248Z,10.43
2023-04-01T06:28:09.535Z,10.62
2023-04-01T06:29:09.474Z,10.79
2023-04-01T06:30:09.969Z,11.23
2023-04-01T06:31:11.019Z,11.4
2023-04-01T06:32:11.706Z,11.55
2023-04-01T06:33:12.164Z,11.65
2023-04-01T06:34:13.043Z,11.7
2023-04-01T06:35:13.005Z,11.74
2023-04-01T06:36:13.892Z,11.83
2023-04-01T06:37:14.951Z,11.86
2023-04-01T06:38:15.566Z,11.7
2023-04-01T06:39:17.316Z,11.73
2023-04-01T06:41:17.173Z,11.62
2023-04-01T06:42:18.134Z,11.6
2023-04-01T06:43:19.238Z,11.59
2023-04-01T06:44:19.333Z,11.51
2023-04-01T06:45:20.589Z,11.48
2023-04-01T06:46:20.514Z,11.41
2023-04-01T06:47:21.081Z,11.31
2023-04-01T06:48:21.336Z,11.23
2023-04-01T06:49:22.223Z,11.02
2023-04-01T06:50:22.533Z,11.04
2023-04-01T06:51:23.083Z,10.89
2023-04-01T06:52:23.999Z,10.87
2023-04-01T06:53:25.186Z,10.92
2023-04-01T06:54:25.698Z,10.79
2023-04-01T06:55:28.602Z,10.64
2023-04-01T06:57:27.433Z,10.43
2023-04-01T06:58:28.236Z,10.24
2023-04-01T06:59:28.930Z,10.13
2023-04-01T07:00:29.646Z,10.15
2023-04-01T07:01:30.499Z,10.13
2023-04-01T07:02:30.821Z,10.09
2023-04-01T07:03:31.502Z,10.09
2023-04-01T07:04:32.326Z,10.02
2023-04-01T07:05:33.090Z,10.03
2023-04-01T07:06:33.083Z,10.12
2023-04-01T07:07:34.033Z,10.15
2023-04-01T07:08:34.756Z,10.2
2023-04-01T07:09:35.481Z,10.68
2023-04-01T07:10:35.978Z,11.19
2023-04-01T07:11:36.702Z,11.88
2023-04-01T07:12:37.669Z,12.23
2023-04-01T07:13:37.782Z,12.65
2023-04-01T07:14:38.568Z,13.21
2023-04-01T07:15:39.741Z,13.6
2023-04-01T07:16:39.553Z,13.58
2023-04-01T07:17:40.446Z,13.54
2023-04-01T07:18:43.494Z,13.64
2023-04-01T07:20:42.126Z,14.26
2023-04-01T07:21:43.035Z,14.59
2023-04-01T07:22:43.809Z,14.77
2023-04-01T07:23:44.492Z,15.11
2023-04-01T07:24:45.037Z,15.3
2023-04-01T07:25:46.098Z,15.57
2023-04-01T07:26:46.889Z,15.39
2023-04-01T07:27:47.154Z,15.12
2023-04-01T07:28:47.100Z,15.3
2023-04-01T07:29:47.588Z,15.18
2023-04-01T07:30:48.642Z,15.11
2023-04-01T07:31:49.679Z,14.78
2023-04-01T07:32:49.944Z,14.82
2023-04-01T07:33:49.705Z,14.77
2023-04-01T07:34:50.221Z,14.52
2023-04-01T07:35:50.816Z,14.68
2023-04-01T07:36:51.553Z,14.43
2023-04-01T07:37:52.285Z,14.61
2023-04-01T07:38:52.522Z,15.05
2023-04-01T07:39:53.493Z,15.07
2023-04-01T07:40:54.038Z,15.18
2023-04-01T07:41:54.974Z,15.6
2023-04-01T07:42:55.726Z,15.83
2023-04-01T07:43:56.127Z,15.45
2023-04-01T07:44:56.675Z,15.32
2023-04-01T07:45:57.431Z,15.23
2023-04-01T07:46:58.497Z,15.18
2023-04-01T07:47:59.384Z,14.78
2023-04-01T07:48:59.956Z,14.67
2023-04-01T07:50:00.260Z,15.17
2023-04-01T07:51:00.976Z,15.66
2023-04-01T07:52:01.686Z,15.6
2023-04-01T07:53:02.838Z,15.91
2023-04-01T07:54:03.135Z,15.88
2023-04-01T07:55:04.064Z,16.32
2023-04-01T07:56:04.805Z,16.31
2023-04-01T07:57:05.194Z,16.43
2023-04-01T07:58:06.267Z,16.55
2023-04-01T07:59:07.271Z,16.51
2023-04-01T08:00:07.781Z,16.57
2023-04-01T08:01:08.283Z,16.82
2023-04-01T08:02:09.011Z,16.95
2023-04-01T08:03:10.186Z,16.95
2023-04-01T08:04:11.052Z,17.41
2023-04-01T08:05:10.976Z,17.95
2023-04-01T08:06:11.520Z,18.15
2023-04-01T08:07:12.237Z,18.21
2023-04-01T08:08:12.781Z,18.24
2023-04-01T08:09:13.548Z,18.03
2023-04-01T08:10:14.051Z,17.86
2023-04-01T08:11:14.582Z,17.79
2023-04-01T08:12:15.101Z,17.38
2023-04-01T08:13:16.245Z,17.44
2023-04-01T08:14:17.115Z,17.87
2023-04-01T08:15:17.859Z,17.09
2023-04-01T08:16:18.813Z,16.97
2023-04-01T08:17:19.651Z,17.1
2023-04-01T08:18:20.487Z,17.46
2023-04-01T08:19:21.452Z,17.57
2023-04-01T08:20:21.569Z,17.71
2023-04-01T08:21:22.520Z,17.87
2023-04-01T08:22:23.034Z,17.12
2023-04-01T08:23:24.100Z,16.59
2023-04-01T08:24:37.333Z,16.84
2023-04-01T08:26:25.439Z,17.14
2023-04-01T08:27:25.748Z,17.35
2023-04-01T08:28:26.475Z,17.59
2023-04-01T08:29:27.048Z,17.78
2023-04-01T08:30:28.125Z,17.88
2023-04-01T08:31:28.530Z,17.98
2023-04-01T08:32:29.944Z,17.95
2023-04-01T08:33:30.041Z,17.94
2023-04-01T08:34:30.696Z,17.54
2023-04-01T08:35:34.342Z,17.35
2023-04-01T08:36:31.803Z,17.56
2023-04-01T08:37:32.354Z,17.8
2023-04-01T08:38:32.940Z,17.39
2023-04-01T08:39:33.723Z,17.37
2023-04-01T08:40:34.640Z,17.27
2023-04-01T08:41:34.963Z,17.66
2023-04-01T08:42:35.463Z,17.56
2023-04-01T08:43:36.202Z,17.88
2023-04-01T08:44:36.874Z,18.11
2023-04-01T08:45:38.357Z,17.9
2023-04-01T08:46:37.977Z,17.66
2023-04-01T08:47:39.330Z,17.57
2023-04-01T08:48:39.358Z,17.23
2023-04-01T08:49:40.072Z,17.49
2023-04-01T08:50:41.220Z,17.32
2023-04-01T08:51:41.743Z,17.46
2023-04-01T08:52:42.233Z,17.39
2023-04-01T08:53:43.160Z,17.38
2023-04-01T08:54:43.600Z,17.49
2023-04-01T08:55:44.522Z,17.24
2023-04-01T08:56:44.871Z,17.2
2023-04-01T08:57:45.946Z,17.44
2023-04-01T08:58:46.856Z,17.46
2023-04-01T08:59:47.613Z,17.39
2023-04-01T09:00:48.743Z,17.19
2023-04-01T09:01:48.604Z,17.46
2023-04-01T09:02:49.313Z,17.54
2023-04-01T09:03:50.719Z,17.42
2023-04-01T09:04:50.832Z,17.31
2023-04-01T09:05:51.235Z,17.1
2023-04-01T09:06:52.345Z,17.19
2023-04-01T09:07:53.051Z,17.22
2023-04-01T09:08:53.794Z,17.05
2023-04-01T09:09:54.572Z,16.84
2023-04-01T09:10:55.275Z,16.62
2023-04-01T09:11:57.646Z,16.54
2023-04-01T09:13:56.482Z,15.9
2023-04-01T09:14:57.336Z,15.66
2023-04-01T09:15:58.206Z,15.25
2023-04-01T09:16:58.828Z,15.12
2023-04-01T09:18:00.006Z,14.99
2023-04-01T09:19:00.128Z,14.97
2023-04-01T09:20:00.289Z,14.68
2023-04-01T09:21:00.998Z,14.61
2023-04-01T09:22:01.334Z,14.86
2023-04-01T09:23:01.879Z,14.78
2023-04-01T09:24:02.599Z,15.12
2023-04-01T09:25:03.852Z,15.32
2023-04-01T09:26:04.616Z,15.27
2023-04-01T09:27:05.479Z,15.14
2023-04-01T09:28:06.163Z,15.15
2023-04-01T09:29:06.949Z,14.97
2023-04-01T09:30:07.991Z,14.78
2023-04-01T09:31:08.676Z,14.77
2023-04-01T09:32:08.441Z,14.71
2023-04-01T09:33:09.341Z,14.53
2023-04-01T09:34:10.121Z,14.43
2023-04-01T09:35:10.424Z,14.37
2023-04-01T09:36:11.064Z,14.31
2023-04-01T09:37:10.864Z,14.22
2023-04-01T09:38:11.565Z,14
2023-04-01T09:39:11.500Z,14.03
2023-04-01T09:40:12.249Z,14.04
2023-04-01T09:41:12.753Z,14.01
2023-04-01T09:42:13.450Z,14.08
2023-04-01T09:43:14.548Z,14.08
2023-04-01T09:44:15.080Z,14.16
2023-04-01T09:45:15.785Z,14.16
2023-04-01T09:46:16.633Z,14.26
2023-04-01T09:47:17.880Z,14.23
2023-04-01T09:48:17.636Z,14.31
2023-04-01T09:49:18.880Z,14.38
2023-04-01T09:50:19.488Z,14.4
2023-04-01T09:51:19.995Z,14.34
2023-04-01T09:52:20.485Z,14.36
2023-04-01T09:53:21.605Z,14.33
2023-04-01T09:54:21.552Z,14.34
2023-04-01T09:55:22.309Z,14.44
2023-04-01T09:56:22.732Z,14.4
2023-04-01T09:57:23.739Z,14.4
2023-04-01T09:58:24.398Z,14.48
2023-04-01T09:59:24.864Z,14.52
2023-04-01T10:00:25.847Z,14.66
2023-04-01T10:01:27.112Z,14.82
2023-04-01T10:02:27.169Z,15
2023-04-01T10:03:30.192Z,15.07
2023-04-01T10:04:28.096Z,15.14
2023-04-01T10:05:28.712Z,15.15
2023-04-01T10:06:28.453Z,15.17
2023-04-01T10:07:29.393Z,15.26
2023-04-01T10:08:30.118Z,15.33
2023-04-01T10:09:31.056Z,15.35
2023-04-01T10:10:31.638Z,15.36
2023-04-01T10:11:32.149Z,15.29
2023-04-01T10:12:33.107Z,15.32
2023-04-01T10:13:33.623Z,15.32
2023-04-01T10:14:34.341Z,15.11
2023-04-01T10:15:35.672Z,15.08
2023-04-01T10:16:35.527Z,15
2023-04-01T10:17:36.686Z,14.89
2023-04-01T10:18:37.462Z,14.96
2023-04-01T10:19:37.763Z,14.93
2023-04-01T10:20:38.056Z,14.94
2023-04-01T10:21:38.982Z,14.99
2023-04-01T10:22:39.504Z,14.85
2023-04-01T10:23:40.232Z,14.81
2023-04-01T10:24:40.543Z,14.81
2023-04-01T10:25:41.394Z,14.71
2023-04-01T10:26:41.316Z,14.67
2023-04-01T10:27:42.278Z,14.59
2023-04-01T10:28:43.187Z,14.55
2023-04-01T10:29:43.718Z,14.43
2023-04-01T10:30:44.685Z,14.3
2023-04-01T10:31:45.632Z,14.26
2023-04-01T10:32:45.601Z,14.18
2023-04-01T10:33:46.370Z,14.13
2023-04-01T10:34:47.648Z,14.04
2023-04-01T10:35:48.011Z,14.07
2023-04-01T10:36:49.060Z,14.01
2023-04-01T10:37:49.794Z,14
2023-04-01T10:38:50.738Z,13.87
2023-04-01T10:39:51.093Z,13.79
2023-04-01T10:40:51.800Z,13.78
2023-04-01T10:41:52.543Z,13.76
2023-04-01T10:42:53.110Z,13.68
2023-04-01T10:43:53.639Z,13.67
2023-04-01T10:44:54.198Z,13.71
2023-04-01T10:45:54.640Z,13.75
2023-04-01T10:46:54.439Z,13.73
2023-04-01T10:47:55.316Z,13.75
2023-04-01T10:48:56.364Z,13.76
2023-04-01T10:49:57.136Z,13.75
2023-04-01T10:50:57.842Z,13.62
2023-04-01T10:51:58.420Z,13.65
2023-04-01T10:52:58.941Z,13.65
2023-04-01T10:53:59.458Z,13.75
2023-04-01T10:55:00.389Z,13.79
2023-04-01T10:56:00.994Z,13.82
2023-04-01T10:57:01.649Z,13.7
2023-04-01T10:58:02.300Z,13.57
2023-04-01T10:59:03.045Z,13.6
2023-04-01T11:00:03.805Z,13.58
2023-04-01T11:01:04.165Z,13.52
2023-04-01T11:02:16.105Z,13.43
2023-04-01T11:04:06.040Z,13.28
2023-04-01T11:05:06.324Z,13.31
2023-04-01T11:06:07.165Z,13.39
2023-04-01T11:07:08.290Z,13.39
2023-04-01T11:08:12.450Z,13.24
2023-04-01T11:10:10.337Z,13.37
2023-04-01T11:11:10.513Z,13.28
2023-04-01T11:12:11.054Z,13.3
2023-04-01T11:13:11.794Z,13.39
2023-04-01T11:14:12.505Z,13.31
2023-04-01T11:15:13.427Z,13.37
2023-04-01T11:16:13.914Z,13.43
2023-04-01T11:17:14.048Z,13.46
2023-04-01T11:18:14.866Z,13.4
2023-04-01T11:19:15.508Z,13.4
2023-04-01T11:20:16.431Z,13.36
2023-04-01T11:21:17.327Z,13.26
2023-04-01T11:22:17.474Z,13.27
2023-04-01T11:23:17.768Z,13.2
2023-04-01T11:24:18.584Z,13.26
2023-04-01T11:25:19.316Z,13.19
2023-04-01T11:26:19.840Z,13.24
2023-04-01T11:27:20.681Z,13.33
2023-04-01T11:28:21.092Z,13.2
2023-04-01T11:29:21.780Z,13.13
2023-04-01T11:30:22.527Z,13.05
2023-04-01T11:31:23.358Z,13.01
2023-04-01T11:32:23.316Z,12.93
2023-04-01T11:33:26.432Z,12.81
2023-04-01T11:35:25.223Z,12.72
2023-04-01T11:37:25.943Z,12.68
2023-04-01T11:38:26.650Z,12.68
2023-04-01T11:39:27.395Z,12.63
2023-04-01T11:40:28.311Z,12.76
2023-04-01T11:41:29.253Z,12.78
2023-04-01T11:42:30.269Z,12.7
2023-04-01T11:43:38.943Z,12.66
2023-04-01T11:45:32.862Z,12.69
2023-04-01T11:46:32.861Z,12.62
2023-04-01T11:47:33.565Z,12.65
2023-04-01T11:48:34.350Z,12.68
2023-04-01T11:49:34.843Z,12.69
2023-04-01T11:50:35.717Z,12.66
2023-04-01T11:51:36.011Z,12.66
2023-04-01T11:52:36.551Z,12.51
2023-04-01T11:53:37.263Z,12.53
2023-04-01T11:54:37.757Z,12.37
2023-04-01T11:55:38.872Z,12.47
2023-04-01T11:56:39.739Z,12.33
2023-04-01T11:57:40.905Z,12.39
2023-04-01T11:58:41.213Z,12.37
2023-04-01T11:59:42.100Z,12.37
2023-04-01T12:00:42.641Z,12.39
2023-04-01T12:01:43.374Z,12.37
2023-04-01T12:02:44.619Z,12.54
2023-04-01T12:03:45.190Z,12.51
2023-04-01T12:04:45.480Z,12.48
2023-04-01T12:05:45.617Z,12.55
2023-04-01T12:06:46.506Z,12.61
2023-04-01T12:07:46.725Z,12.63
2023-04-01T12:08:47.731Z,12.69
2023-04-01T12:09:48.244Z,12.62
2023-04-01T12:10:49.173Z,12.66
2023-04-01T12:11:49.688Z,12.66
2023-04-01T12:13:03.582Z,12.66
2023-04-01T12:14:51.551Z,12.54
2023-04-01T12:15:52.259Z,12.57
2023-04-01T12:16:52.681Z,12.54
2023-04-01T12:17:52.826Z,12.44
2023-04-01T12:18:53.415Z,12.47
2023-04-01T12:19:53.556Z,12.4
2023-04-01T12:20:54.060Z,12.35
2023-04-01T12:21:54.952Z,12.43
2023-04-01T12:22:55.521Z,12.35
2023-04-01T12:23:55.806Z,12.32
2023-04-01T12:24:56.512Z,12.18
2023-04-01T12:25:57.507Z,12.29
2023-04-01T12:26:58.069Z,12.32
2023-04-01T12:27:58.991Z,12.3
2023-04-01T12:28:59.714Z,12.21
2023-04-01T12:30:00.032Z,12.18
2023-04-01T12:31:00.875Z,12.18
2023-04-01T12:32:01.899Z,12.12
2023-04-01T12:33:02.151Z,12.08
2023-04-01T12:34:02.806Z,12.07
2023-04-01T12:35:03.499Z,11.95
2023-04-01T12:36:03.710Z,11.97
2023-04-01T12:37:04.104Z,11.88
2023-04-01T12:38:04.814Z,11.74
2023-04-01T12:39:05.537Z,11.7
2023-04-01T12:40:06.233Z,11.7
2023-04-01T12:41:07.174Z,11.71
2023-04-01T12:42:08.325Z,11.77
2023-04-01T12:43:08.031Z,11.81
2023-04-01T12:44:08.742Z,11.71
2023-04-01T12:45:08.674Z,11.71
2023-04-01T12:46:10.067Z,11.71
2023-04-01T12:47:10.665Z,11.73
2023-04-01T12:48:11.702Z,11.68
2023-04-01T12:49:12.387Z,11.73
2023-04-01T12:50:12.900Z,11.76
2023-04-01T12:51:13.636Z,11.85
2023-04-01T12:52:14.529Z,11.8
2023-04-01T12:53:15.033Z,11.8
2023-04-01T12:54:15.523Z,11.8
2023-04-01T12:55:16.045Z,11.85
2023-04-01T12:56:16.954Z,11.73
2023-04-01T12:57:17.853Z,11.71
2023-04-01T12:58:18.021Z,11.65
2023-04-01T12:59:19.051Z,11.63
2023-04-01T13:00:19.580Z,11.76
2023-04-01T13:01:20.309Z,11.67
2023-04-01T13:02:20.546Z,11.67
2023-04-01T13:03:20.684Z,11.76
2023-04-01T13:04:21.634Z,11.71
2023-04-01T13:05:22.175Z,11.71
2023-04-01T13:06:26.514Z,11.74
2023-04-01T13:08:23.556Z,11.81
2023-04-01T13:09:24.114Z,11.88
2023-04-01T13:10:24.835Z,11.83
2023-04-01T13:11:25.691Z,11.81
2023-04-01T13:12:26.675Z,11.77
2023-04-01T13:13:26.732Z,11.81
2023-04-01T13:14:36.767Z,11.86
2023-04-01T13:16:27.786Z,11.85
2023-04-01T13:17:28.832Z,11.91
2023-04-01T13:18:29.844Z,11.86
2023-04-01T13:19:30.757Z,11.93
2023-04-01T13:20:32.055Z,11.86
2023-04-01T13:21:32.812Z,11.83
2023-04-01T13:22:33.083Z,11.99
2023-04-01T13:23:33.165Z,11.95
2023-04-01T13:24:33.663Z,11.97
2023-04-01T13:25:34.360Z,11.99
2023-04-01T13:26:35.286Z,12.05
2023-04-01T13:27:35.743Z,12.07
2023-04-01T13:28:39.119Z,12.11
2023-04-01T13:29:37.103Z,12.05
2023-04-01T13:30:38.239Z,12.05
2023-04-01T13:31:39.247Z,12.02
2023-04-01T13:32:46.495Z,12.05
2023-04-01T13:34:40.958Z,12.08
2023-04-01T13:35:42.144Z,12.02
2023-04-01T13:36:42.317Z,12.02
2023-04-01T13:37:43.127Z,12
2023-04-01T13:38:43.813Z,12.08
2023-04-01T13:39:44.321Z,12